sensor_id;sensor_type;location;lat;lon;timestamp;temperature;humidity
8778;DHT22;4425;50.872;4.712;2023-04-24T00:02:17;10.40;99.90
8778;DHT22;4425;50.872;4.712;2023-04-24T00:04:45;10.40;99.90
8778;DHT22;4425;50.872;4.712;2023-04-24T00:07:12;10.40;99.90
8778;DHT22;4425;50.872;4.712;2023-04-24T00:09:40;10.40;99.90
8778;DHT22;4425;50.872;4.712;2023-04-24T00:12:12;10.40;99.90
8778;DHT22;4425;50.872;4.712;2023-04-24T00:14:39;10.30;99.90
8778;DHT22;4425;50.872;4.712;2023-04-24T00:17:06;10.30;99.90
8778;DHT22;4425;50.872;4.712;2023-04-24T00:19:33;10.20;99.90
8778;DHT22;4425;50.872;4.712;2023-04-24T00:22:02;10.20;99.90
8778;DHT22;4425;50.872;4.712;2023-04-24T00:24:29;10.20;99.90
8778;DHT22;4425;50.872;4.712;2023-04-24T00:26:56;10.20;99.90
8778;DHT22;4425;50.872;4.712;2023-04-24T00:29:26;10.20;99.90
8778;DHT22;4425;50.872;4.712;2023-04-24T00:31:54;10.20;99.90
8778;DHT22;4425;50.872;4.712;2023-04-24T00:34:21;10.20;99.90
8778;DHT22;4425;50.872;4.712;2023-04-24T00:36:48;10.20;99.90
8778;DHT22;4425;50.872;4.712;2023-04-24T00:39:17;10.20;99.90
8778;DHT22;4425;50.872;4.712;2023-04-24T00:41:45;10.20;99.90
8778;DHT22;4425;50.872;4.712;2023-04-24T00:44:13;10.30;99.90
8778;DHT22;4425;50.872;4.712;2023-04-24T00:46:42;10.30;99.90
8778;DHT22;4425;50.872;4.712;2023-04-24T00:49:10;10.30;99.90
8778;DHT22;4425;50.872;4.712;2023-04-24T00:51:37;10.30;99.90
8778;DHT22;4425;50.872;4.712;2023-04-24T00:54:06;10.30;99.90
8778;DHT22;4425;50.872;4.712;2023-04-24T00:56:33;10.30;99.90
8778;DHT22;4425;50.872;4.712;2023-04-24T00:59:00;10.20;99.90
8778;DHT22;4425;50.872;4.712;2023-04-24T01:01:27;10.20;99.90
8778;DHT22;4425;50.872;4.712;2023-04-24T01:03:57;10.10;99.90
8778;DHT22;4425;50.872;4.712;2023-04-24T01:06:27;10.10;99.90
8778;DHT22;4425;50.872;4.712;2023-04-24T01:08:57;10.00;99.90
8778;DHT22;4425;50.872;4.712;2023-04-24T01:11:26;10.10;99.90
8778;DHT22;4425;50.872;4.712;2023-04-24T01:13:53;10.10;99.90
8778;DHT22;4425;50.872;4.712;2023-04-24T01:16:20;10.10;99.90
8778;DHT22;4425;50.872;4.712;2023-04-24T01:18:48;10.10;99.90
8778;DHT22;4425;50.872;4.712;2023-04-24T01:21:18;10.00;99.90
8778;DHT22;4425;50.872;4.712;2023-04-24T01:23:55;9.80;99.90
8778;DHT22;4425;50.872;4.712;2023-04-24T01:26:23;10.00;99.90
8778;DHT22;4425;50.872;4.712;2023-04-24T01:28:51;10.00;99.90
8778;DHT22;4425;50.872;4.712;2023-04-24T01:31:19;10.00;99.90
8778;DHT22;4425;50.872;4.712;2023-04-24T01:33:47;9.90;99.90
8778;DHT22;4425;50.872;4.712;2023-04-24T01:36:16;9.90;99.90
8778;DHT22;4425;50.872;4.712;2023-04-24T01:38:43;9.90;99.90
8778;DHT22;4425;50.872;4.712;2023-04-24T01:41:13;9.90;99.90
8778;DHT22;4425;50.872;4.712;2023-04-24T01:43:40;9.90;99.90
8778;DHT22;4425;50.872;4.712;2023-04-24T01:46:07;9.90;99.90
8778;DHT22;4425;50.872;4.712;2023-04-24T01:48:35;9.90;99.90
8778;DHT22;4425;50.872;4.712;2023-04-24T01:51:03;9.90;99.90
8778;DHT22;4425;50.872;4.712;2023-04-24T01:53:30;9.80;99.90
8778;DHT22;4425;50.872;4.712;2023-04-24T01:55:57;9.80;99.90
8778;DHT22;4425;50.872;4.712;2023-04-24T01:58:27;9.70;99.90
8778;DHT22;4425;50.872;4.712;2023-04-24T02:00:56;9.70;99.90
8778;DHT22;4425;50.872;4.712;2023-04-24T02:03:25;9.60;99.90
8778;DHT22;4425;50.872;4.712;2023-04-24T02:05:52;9.60;99.90
8778;DHT22;4425;50.872;4.712;2023-04-24T02:08:20;9.60;99.90
8778;DHT22;4425;50.872;4.712;2023-04-24T02:10:47;9.60;99.90
8778;DHT22;4425;50.872;4.712;2023-04-24T02:13:14;9.60;99.90
8778;DHT22;4425;50.872;4.712;2023-04-24T02:15:43;9.60;99.90
8778;DHT22;4425;50.872;4.712;2023-04-24T02:18:10;9.60;99.90
8778;DHT22;4425;50.872;4.712;2023-04-24T02:20:38;9.60;99.90
8778;DHT22;4425;50.872;4.712;2023-04-24T02:23:05;9.60;99.90
8778;DHT22;4425;50.872;4.712;2023-04-24T02:25:33;9.70;99.90
8778;DHT22;4425;50.872;4.712;2023-04-24T02:28:00;9.70;99.90
8778;DHT22;4425;50.872;4.712;2023-04-24T02:30:28;9.70;99.90
8778;DHT22;4425;50.872;4.712;2023-04-24T02:32:58;9.60;99.90
8778;DHT22;4425;50.872;4.712;2023-04-24T02:35:25;9.60;99.90
8778;DHT22;4425;50.872;4.712;2023-04-24T02:37:52;9.50;99.90
8778;DHT22;4425;50.872;4.712;2023-04-24T02:40:19;9.50;99.90
8778;DHT22;4425;50.872;4.712;2023-04-24T02:42:47;9.40;99.90
8778;DHT22;4425;50.872;4.712;2023-04-24T02:45:14;9.50;99.90
8778;DHT22;4425;50.872;4.712;2023-04-24T02:47:41;9.50;99.90
8778;DHT22;4425;50.872;4.712;2023-04-24T02:50:11;9.40;99.90
8778;DHT22;4425;50.872;4.712;2023-04-24T02:52:38;9.50;99.90
8778;DHT22;4425;50.872;4.712;2023-04-24T02:55:06;9.50;99.90
8778;DHT22;4425;50.872;4.712;2023-04-24T02:57:33;9.40;99.90
8778;DHT22;4425;50.872;4.712;2023-04-24T03:00:01;9.40;99.90
8778;DHT22;4425;50.872;4.712;2023-04-24T03:02:28;9.40;99.90
8778;DHT22;4425;50.872;4.712;2023-04-24T03:04:55;9.40;99.90
8778;DHT22;4425;50.872;4.712;2023-04-24T03:07:24;9.40;99.90
8778;DHT22;4425;50.872;4.712;2023-04-24T03:09:52;9.30;99.90
8778;DHT22;4425;50.872;4.712;2023-04-24T03:12:19;9.30;99.90
8778;DHT22;4425;50.872;4.712;2023-04-24T03:14:49;9.30;99.90
8778;DHT22;4425;50.872;4.712;2023-04-24T03:17:16;9.40;99.90
8778;DHT22;4425;50.872;4.712;2023-04-24T03:19:43;9.40;99.90
8778;DHT22;4425;50.872;4.712;2023-04-24T03:22:10;9.30;99.90
8778;DHT22;4425;50.872;4.712;2023-04-24T03:24:40;9.30;99.90
8778;DHT22;4425;50.872;4.712;2023-04-24T03:27:10;9.30;99.90
8778;DHT22;4425;50.872;4.712;2023-04-24T03:29:38;9.40;99.90
8778;DHT22;4425;50.872;4.712;2023-04-24T03:32:06;9.40;99.90
8778;DHT22;4425;50.872;4.712;2023-04-24T03:34:33;9.40;99.90
8778;DHT22;4425;50.872;4.712;2023-04-24T03:37:00;9.40;99.90
8778;DHT22;4425;50.872;4.712;2023-04-24T03:39:28;9.40;99.90
8778;DHT22;4425;50.872;4.712;2023-04-24T03:41:56;9.40;99.90
8778;DHT22;4425;50.872;4.712;2023-04-24T03:44:23;9.30;99.90
8778;DHT22;4425;50.872;4.712;2023-04-24T03:46:51;9.40;99.90
8778;DHT22;4425;50.872;4.712;2023-04-24T03:49:18;9.40;99.90
8778;DHT22;4425;50.872;4.712;2023-04-24T03:51:46;9.30;99.90
8778;DHT22;4425;50.872;4.712;2023-04-24T03:54:14;9.30;99.90
8778;DHT22;4425;50.872;4.712;2023-04-24T03:56:41;9.30;99.90
8778;DHT22;4425;50.872;4.712;2023-04-24T03:59:10;9.20;99.90
8778;DHT22;4425;50.872;4.712;2023-04-24T04:01:38;9.20;99.90
8778;DHT22;4425;50.872;4.712;2023-04-24T04:04:05;9.20;99.90
8778;DHT22;4425;50.872;4.712;2023-04-24T04:06:33;9.20;99.90
8778;DHT22;4425;50.872;4.712;2023-04-24T04:09:02;9.20;99.90
8778;DHT22;4425;50.872;4.712;2023-04-24T04:11:29;9.20;99.90
8778;DHT22;4425;50.872;4.712;2023-04-24T04:13:58;9.20;99.90
8778;DHT22;4425;50.872;4.712;2023-04-24T04:16:28;9.20;99.90
8778;DHT22;4425;50.872;4.712;2023-04-24T04:18:57;9.20;99.90
8778;DHT22;4425;50.872;4.712;2023-04-24T04:21:24;9.20;99.90
8778;DHT22;4425;50.872;4.712;2023-04-24T04:23:53;9.20;99.90
8778;DHT22;4425;50.872;4.712;2023-04-24T04:26:20;9.30;99.90
8778;DHT22;4425;50.872;4.712;2023-04-24T04:28:53;9.30;99.90
8778;DHT22;4425;50.872;4.712;2023-04-24T04:31:20;9.30;99.90
8778;DHT22;4425;50.872;4.712;2023-04-24T04:33:50;9.30;99.90
8778;DHT22;4425;50.872;4.712;2023-04-24T04:36:17;9.30;99.90
8778;DHT22;4425;50.872;4.712;2023-04-24T04:38:44;9.30;99.90
8778;DHT22;4425;50.872;4.712;2023-04-24T04:41:12;9.30;99.90
8778;DHT22;4425;50.872;4.712;2023-04-24T04:43:42;9.40;99.90
8778;DHT22;4425;50.872;4.712;2023-04-24T04:46:09;9.40;99.90
8778;DHT22;4425;50.872;4.712;2023-04-24T04:48:38;9.40;99.90
8778;DHT22;4425;50.872;4.712;2023-04-24T04:51:07;9.30;99.90
8778;DHT22;4425;50.872;4.712;2023-04-24T04:53:34;9.30;99.90
8778;DHT22;4425;50.872;4.712;2023-04-24T04:56:01;9.30;99.90
8778;DHT22;4425;50.872;4.712;2023-04-24T04:58:29;9.30;99.90
8778;DHT22;4425;50.872;4.712;2023-04-24T05:00:56;9.30;99.90
8778;DHT22;4425;50.872;4.712;2023-04-24T05:03:25;9.30;99.90
8778;DHT22;4425;50.872;4.712;2023-04-24T05:05:53;9.30;99.90
8778;DHT22;4425;50.872;4.712;2023-04-24T05:08:23;9.20;99.90
8778;DHT22;4425;50.872;4.712;2023-04-24T05:10:51;9.30;99.90
8778;DHT22;4425;50.872;4.712;2023-04-24T05:13:18;9.20;99.90
8778;DHT22;4425;50.872;4.712;2023-04-24T05:15:45;9.20;99.90
8778;DHT22;4425;50.872;4.712;2023-04-24T05:18:13;9.20;99.90
8778;DHT22;4425;50.872;4.712;2023-04-24T05:20:41;9.10;99.90
8778;DHT22;4425;50.872;4.712;2023-04-24T05:23:09;9.20;99.90
8778;DHT22;4425;50.872;4.712;2023-04-24T05:25:38;9.10;99.90
8778;DHT22;4425;50.872;4.712;2023-04-24T05:28:07;9.10;99.90
8778;DHT22;4425;50.872;4.712;2023-04-24T05:30:34;9.20;99.90
8778;DHT22;4425;50.872;4.712;2023-04-24T05:33:01;9.10;99.90
8778;DHT22;4425;50.872;4.712;2023-04-24T05:35:28;9.10;99.90
8778;DHT22;4425;50.872;4.712;2023-04-24T05:37:56;9.10;99.90
8778;DHT22;4425;50.872;4.712;2023-04-24T05:40:24;9.10;99.90
8778;DHT22;4425;50.872;4.712;2023-04-24T05:42:53;9.10;99.90
8778;DHT22;4425;50.872;4.712;2023-04-24T05:45:20;9.10;99.90
8778;DHT22;4425;50.872;4.712;2023-04-24T05:47:47;9.10;99.90
8778;DHT22;4425;50.872;4.712;2023-04-24T05:50:14;9.00;99.90
8778;DHT22;4425;50.872;4.712;2023-04-24T05:52:43;9.10;99.90
8778;DHT22;4425;50.872;4.712;2023-04-24T05:55:10;9.10;99.90
8778;DHT22;4425;50.872;4.712;2023-04-24T05:57:37;9.10;99.90
8778;DHT22;4425;50.872;4.712;2023-04-24T06:00:08;9.10;99.90
8778;DHT22;4425;50.872;4.712;2023-04-24T06:02:37;9.00;99.90
8778;DHT22;4425;50.872;4.712;2023-04-24T06:05:07;9.00;99.90
8778;DHT22;4425;50.872;4.712;2023-04-24T06:07:35;9.00;99.90
8778;DHT22;4425;50.872;4.712;2023-04-24T06:10:04;9.10;99.90
8778;DHT22;4425;50.872;4.712;2023-04-24T06:12:31;9.10;99.90
8778;DHT22;4425;50.872;4.712;2023-04-24T06:14:58;9.10;99.90
8778;DHT22;4425;50.872;4.712;2023-04-24T06:17:27;9.10;99.90
8778;DHT22;4425;50.872;4.712;2023-04-24T06:19:54;9.10;99.90
8778;DHT22;4425;50.872;4.712;2023-04-24T06:22:22;9.10;99.90
8778;DHT22;4425;50.872;4.712;2023-04-24T06:24:49;9.10;99.90
8778;DHT22;4425;50.872;4.712;2023-04-24T06:27:16;9.10;99.90
8778;DHT22;4425;50.872;4.712;2023-04-24T06:29:43;9.00;99.90
8778;DHT22;4425;50.872;4.712;2023-04-24T06:32:11;9.00;99.90
8778;DHT22;4425;50.872;4.712;2023-04-24T06:34:39;9.00;99.90
8778;DHT22;4425;50.872;4.712;2023-04-24T06:37:07;9.00;99.90
8778;DHT22;4425;50.872;4.712;2023-04-24T06:39:35;9.00;99.90
8778;DHT22;4425;50.872;4.712;2023-04-24T06:42:09;9.00;99.90
8778;DHT22;4425;50.872;4.712;2023-04-24T06:44:37;9.00;99.90
8778;DHT22;4425;50.872;4.712;2023-04-24T06:47:07;9.00;99.90
8778;DHT22;4425;50.872;4.712;2023-04-24T06:49:35;9.00;99.90
8778;DHT22;4425;50.872;4.712;2023-04-24T06:52:06;9.10;99.90
8778;DHT22;4425;50.872;4.712;2023-04-24T06:54:35;9.10;99.90
8778;DHT22;4425;50.872;4.712;2023-04-24T06:57:02;9.10;99.90
8778;DHT22;4425;50.872;4.712;2023-04-24T06:59:29;9.10;99.90
8778;DHT22;4425;50.872;4.712;2023-04-24T07:01:57;9.10;99.90
8778;DHT22;4425;50.872;4.712;2023-04-24T07:04:24;9.10;99.90
8778;DHT22;4425;50.872;4.712;2023-04-24T07:06:52;9.10;99.90
8778;DHT22;4425;50.872;4.712;2023-04-24T07:09:25;9.20;99.90
8778;DHT22;4425;50.872;4.712;2023-04-24T07:11:53;9.20;99.90
8778;DHT22;4425;50.872;4.712;2023-04-24T07:14:23;9.20;99.90
8778;DHT22;4425;50.872;4.712;2023-04-24T07:16:50;9.20;99.90
8778;DHT22;4425;50.872;4.712;2023-04-24T07:19:17;9.30;99.90
8778;DHT22;4425;50.872;4.712;2023-04-24T07:21:44;9.30;99.90
8778;DHT22;4425;50.872;4.712;2023-04-24T07:24:11;9.30;99.90
8778;DHT22;4425;50.872;4.712;2023-04-24T07:26:40;9.40;99.90
8778;DHT22;4425;50.872;4.712;2023-04-24T07:29:07;9.40;99.90
8778;DHT22;4425;50.872;4.712;2023-04-24T07:31:36;9.40;99.90
8778;DHT22;4425;50.872;4.712;2023-04-24T07:34:04;9.50;99.90
8778;DHT22;4425;50.872;4.712;2023-04-24T07:36:32;9.50;99.90
8778;DHT22;4425;50.872;4.712;2023-04-24T07:38:59;9.50;99.90
8778;DHT22;4425;50.872;4.712;2023-04-24T07:41:27;9.40;99.90
8778;DHT22;4425;50.872;4.712;2023-04-24T07:43:55;9.40;99.90
8778;DHT22;4425;50.872;4.712;2023-04-24T07:46:23;9.40;99.90
8778;DHT22;4425;50.872;4.712;2023-04-24T07:48:50;9.40;99.90
8778;DHT22;4425;50.872;4.712;2023-04-24T07:51:17;9.50;99.90
8778;DHT22;4425;50.872;4.712;2023-04-24T07:53:44;9.40;99.90
8778;DHT22;4425;50.872;4.712;2023-04-24T07:56:12;9.50;99.90
8778;DHT22;4425;50.872;4.712;2023-04-24T07:58:39;9.60;99.90
8778;DHT22;4425;50.872;4.712;2023-04-24T08:01:08;9.50;99.90
8778;DHT22;4425;50.872;4.712;2023-04-24T08:03:35;9.60;99.90
8778;DHT22;4425;50.872;4.712;2023-04-24T08:06:06;9.50;99.90
8778;DHT22;4425;50.872;4.712;2023-04-24T08:08:33;9.50;99.90
8778;DHT22;4425;50.872;4.712;2023-04-24T08:11:00;9.60;99.90
8778;DHT22;4425;50.872;4.712;2023-04-24T08:13:27;9.70;99.90
8778;DHT22;4425;50.872;4.712;2023-04-24T08:15:56;10.10;99.90
8778;DHT22;4425;50.872;4.712;2023-04-24T08:18:25;10.40;99.90
8778;DHT22;4425;50.872;4.712;2023-04-24T08:20:52;10.90;99.90
8778;DHT22;4425;50.872;4.712;2023-04-24T08:23:21;11.10;99.90
8778;DHT22;4425;50.872;4.712;2023-04-24T08:25:48;11.10;99.90
8778;DHT22;4425;50.872;4.712;2023-04-24T08:28:16;11.10;99.90
8778;DHT22;4425;50.872;4.712;2023-04-24T08:30:45;11.10;99.90
8778;DHT22;4425;50.872;4.712;2023-04-24T08:33:14;11.00;99.90
8778;DHT22;4425;50.872;4.712;2023-04-24T08:35:42;10.90;99.90
8778;DHT22;4425;50.872;4.712;2023-04-24T08:38:10;10.80;99.90
8778;DHT22;4425;50.872;4.712;2023-04-24T08:40:37;10.60;99.90
8778;DHT22;4425;50.872;4.712;2023-04-24T08:43:05;10.30;99.90
8778;DHT22;4425;50.872;4.712;2023-04-24T08:45:33;10.10;99.90
8778;DHT22;4425;50.872;4.712;2023-04-24T08:48:03;10.20;99.90
8778;DHT22;4425;50.872;4.712;2023-04-24T08:50:32;10.40;99.90
8778;DHT22;4425;50.872;4.712;2023-04-24T08:53:02;10.50;99.90
8778;DHT22;4425;50.872;4.712;2023-04-24T08:55:31;10.70;99.90
8778;DHT22;4425;50.872;4.712;2023-04-24T08:58:02;10.80;99.90
8778;DHT22;4425;50.872;4.712;2023-04-24T09:00:30;11.00;99.90
8778;DHT22;4425;50.872;4.712;2023-04-24T09:03:00;12.30;99.90
8778;DHT22;4425;50.872;4.712;2023-04-24T09:05:28;12.90;99.90
8778;DHT22;4425;50.872;4.712;2023-04-24T09:07:56;12.30;99.90
8778;DHT22;4425;50.872;4.712;2023-04-24T09:10:26;11.70;99.90
8778;DHT22;4425;50.872;4.712;2023-04-24T09:12:59;11.40;99.90
8778;DHT22;4425;50.872;4.712;2023-04-24T09:15:28;11.10;99.90
8778;DHT22;4425;50.872;4.712;2023-04-24T09:17:58;11.10;99.90
8778;DHT22;4425;50.872;4.712;2023-04-24T09:20:26;11.10;99.90
8778;DHT22;4425;50.872;4.712;2023-04-24T09:22:55;11.00;99.90
8778;DHT22;4425;50.872;4.712;2023-04-24T09:25:30;11.00;99.90
8778;DHT22;4425;50.872;4.712;2023-04-24T09:28:00;11.30;99.90
8778;DHT22;4425;50.872;4.712;2023-04-24T09:30:37;11.60;99.90
8778;DHT22;4425;50.872;4.712;2023-04-24T09:33:12;11.80;99.90
8778;DHT22;4425;50.872;4.712;2023-04-24T09:35:41;11.90;99.90
8778;DHT22;4425;50.872;4.712;2023-04-24T09:38:09;11.90;99.90
8778;DHT22;4425;50.872;4.712;2023-04-24T09:40:38;12.10;99.90
8778;DHT22;4425;50.872;4.712;2023-04-24T09:43:10;12.20;99.90
8778;DHT22;4425;50.872;4.712;2023-04-24T09:45:39;12.40;99.90
8778;DHT22;4425;50.872;4.712;2023-04-24T09:48:09;12.30;99.90
8778;DHT22;4425;50.872;4.712;2023-04-24T09:50:37;12.10;99.90
8778;DHT22;4425;50.872;4.712;2023-04-24T09:53:05;11.90;99.90
8778;DHT22;4425;50.872;4.712;2023-04-24T09:55:42;11.80;99.90
8778;DHT22;4425;50.872;4.712;2023-04-24T09:58:12;11.70;99.90
8778;DHT22;4425;50.872;4.712;2023-04-24T10:00:40;11.60;99.90
8778;DHT22;4425;50.872;4.712;2023-04-24T10:03:08;11.70;99.90
8778;DHT22;4425;50.872;4.712;2023-04-24T10:05:38;12.00;99.90
8778;DHT22;4425;50.872;4.712;2023-04-24T10:08:12;12.10;99.90
8778;DHT22;4425;50.872;4.712;2023-04-24T10:13:44;12.30;99.90
8778;DHT22;4425;50.872;4.712;2023-04-24T10:16:12;12.40;99.90
8778;DHT22;4425;50.872;4.712;2023-04-24T10:18:41;12.60;99.90
8778;DHT22;4425;50.872;4.712;2023-04-24T10:21:08;12.60;99.90
8778;DHT22;4425;50.872;4.712;2023-04-24T10:23:37;12.40;99.90
8778;DHT22;4425;50.872;4.712;2023-04-24T10:26:06;12.30;99.90
8778;DHT22;4425;50.872;4.712;2023-04-24T10:28:36;12.30;99.90
8778;DHT22;4425;50.872;4.712;2023-04-24T10:31:07;12.40;99.90
8778;DHT22;4425;50.872;4.712;2023-04-24T10:33:36;12.40;99.90
8778;DHT22;4425;50.872;4.712;2023-04-24T10:36:09;12.60;99.90
8778;DHT22;4425;50.872;4.712;2023-04-24T10:38:37;12.70;99.90
8778;DHT22;4425;50.872;4.712;2023-04-24T10:41:10;12.80;99.90
8778;DHT22;4425;50.872;4.712;2023-04-24T10:43:42;12.80;99.90
8778;DHT22;4425;50.872;4.712;2023-04-24T10:46:19;12.90;99.90
8778;DHT22;4425;50.872;4.712;2023-04-24T10:48:53;12.70;99.90
8778;DHT22;4425;50.872;4.712;2023-04-24T10:51:22;12.90;99.90
8778;DHT22;4425;50.872;4.712;2023-04-24T10:53:50;13.00;99.90
8778;DHT22;4425;50.872;4.712;2023-04-24T10:56:18;12.90;99.90
8778;DHT22;4425;50.872;4.712;2023-04-24T10:58:50;13.00;99.90
8778;DHT22;4425;50.872;4.712;2023-04-24T11:01:28;12.80;99.90
8778;DHT22;4425;50.872;4.712;2023-04-24T11:03:57;12.60;99.90
8778;DHT22;4425;50.872;4.712;2023-04-24T11:06:31;12.40;99.90
8778;DHT22;4425;50.872;4.712;2023-04-24T11:09:03;12.40;99.90
8778;DHT22;4425;50.872;4.712;2023-04-24T11:11:31;12.20;99.90
8778;DHT22;4425;50.872;4.712;2023-04-24T11:14:04;12.20;99.90
8778;DHT22;4425;50.872;4.712;2023-04-24T11:16:37;12.20;99.90
8778;DHT22;4425;50.872;4.712;2023-04-24T11:19:08;12.30;99.90
8778;DHT22;4425;50.872;4.712;2023-04-24T11:21:45;12.40;99.90
8778;DHT22;4425;50.872;4.712;2023-04-24T11:24:25;12.60;99.90
8778;DHT22;4425;50.872;4.712;2023-04-24T11:26:52;12.80;99.90
8778;DHT22;4425;50.872;4.712;2023-04-24T11:29:20;13.00;99.90
8778;DHT22;4425;50.872;4.712;2023-04-24T11:31:55;13.20;99.90
8778;DHT22;4425;50.872;4.712;2023-04-24T11:34:26;13.20;99.90
8778;DHT22;4425;50.872;4.712;2023-04-24T11:36:53;13.00;99.90
8778;DHT22;4425;50.872;4.712;2023-04-24T11:39:20;12.70;99.90
8778;DHT22;4425;50.872;4.712;2023-04-24T11:41:50;12.50;99.90
8778;DHT22;4425;50.872;4.712;2023-04-24T11:44:20;12.50;99.90
8778;DHT22;4425;50.872;4.712;2023-04-24T11:46:55;12.70;99.90
8778;DHT22;4425;50.872;4.712;2023-04-24T11:49:24;12.90;99.90
8778;DHT22;4425;50.872;4.712;2023-04-24T11:51:55;12.90;99.90
8778;DHT22;4425;50.872;4.712;2023-04-24T11:54:22;12.90;99.90
8778;DHT22;4425;50.872;4.712;2023-04-24T11:56:50;13.00;99.90
8778;DHT22;4425;50.872;4.712;2023-04-24T11:59:18;12.90;99.90
8778;DHT22;4425;50.872;4.712;2023-04-24T12:01:46;12.80;99.90
8778;DHT22;4425;50.872;4.712;2023-04-24T12:04:17;12.90;99.90
8778;DHT22;4425;50.872;4.712;2023-04-24T12:07:00;12.90;99.90
8778;DHT22;4425;50.872;4.712;2023-04-24T12:09:29;13.00;99.90
8778;DHT22;4425;50.872;4.712;2023-04-24T12:12:06;13.30;99.90
8778;DHT22;4425;50.872;4.712;2023-04-24T12:14:43;13.50;99.90
8778;DHT22;4425;50.872;4.712;2023-04-24T12:17:10;13.60;99.90
8778;DHT22;4425;50.872;4.712;2023-04-24T12:19:45;13.60;99.90
8778;DHT22;4425;50.872;4.712;2023-04-24T12:22:13;13.20;99.90
8778;DHT22;4425;50.872;4.712;2023-04-24T12:24:56;13.20;99.90
8778;DHT22;4425;50.872;4.712;2023-04-24T12:27:23;13.30;99.90
8778;DHT22;4425;50.872;4.712;2023-04-24T12:29:56;13.30;99.90
8778;DHT22;4425;50.872;4.712;2023-04-24T12:32:26;13.50;99.90
8778;DHT22;4425;50.872;4.712;2023-04-24T12:34:56;13.50;99.90
8778;DHT22;4425;50.872;4.712;2023-04-24T12:37:24;13.50;99.90
8778;DHT22;4425;50.872;4.712;2023-04-24T12:40:04;13.40;99.90
8778;DHT22;4425;50.872;4.712;2023-04-24T12:42:33;13.30;99.90
8778;DHT22;4425;50.872;4.712;2023-04-24T12:45:03;13.30;99.90
8778;DHT22;4425;50.872;4.712;2023-04-24T12:47:31;13.50;99.90
8778;DHT22;4425;50.872;4.712;2023-04-24T12:50:01;13.50;99.90
8778;DHT22;4425;50.872;4.712;2023-04-24T12:52:29;13.50;99.90
8778;DHT22;4425;50.872;4.712;2023-04-24T12:54:58;13.50;99.90
8778;DHT22;4425;50.872;4.712;2023-04-24T12:57:27;13.60;99.90
8778;DHT22;4425;50.872;4.712;2023-04-24T12:59:55;13.60;99.90
8778;DHT22;4425;50.872;4.712;2023-04-24T13:02:24;13.60;99.90
8778;DHT22;4425;50.872;4.712;2023-04-24T13:04:53;13.40;99.90
8778;DHT22;4425;50.872;4.712;2023-04-24T13:07:22;13.40;99.90
8778;DHT22;4425;50.872;4.712;2023-04-24T13:09:51;13.50;99.90
8778;DHT22;4425;50.872;4.712;2023-04-24T13:12:19;13.60;99.90
8778;DHT22;4425;50.872;4.712;2023-04-24T13:14:47;13.90;99.90
8778;DHT22;4425;50.872;4.712;2023-04-24T13:17:14;14.20;99.90
8778;DHT22;4425;50.872;4.712;2023-04-24T13:19:42;14.60;99.90
8778;DHT22;4425;50.872;4.712;2023-04-24T13:22:13;14.60;99.90
8778;DHT22;4425;50.872;4.712;2023-04-24T13:24:58;14.80;99.90
8778;DHT22;4425;50.872;4.712;2023-04-24T13:27:28;14.50;99.90
8778;DHT22;4425;50.872;4.712;2023-04-24T13:29:55;14.40;99.90
8778;DHT22;4425;50.872;4.712;2023-04-24T13:32:23;14.20;99.90
8778;DHT22;4425;50.872;4.712;2023-04-24T13:34:50;14.10;99.90
8778;DHT22;4425;50.872;4.712;2023-04-24T13:37:18;14.20;99.90
8778;DHT22;4425;50.872;4.712;2023-04-24T13:39:46;14.10;99.90
8778;DHT22;4425;50.872;4.712;2023-04-24T13:42:15;14.10;99.90
8778;DHT22;4425;50.872;4.712;2023-04-24T13:44:44;14.20;99.90
8778;DHT22;4425;50.872;4.712;2023-04-24T13:47:13;14.10;99.90
8778;DHT22;4425;50.872;4.712;2023-04-24T13:49:40;14.20;99.90
8778;DHT22;4425;50.872;4.712;2023-04-24T13:52:07;14.30;99.90
8778;DHT22;4425;50.872;4.712;2023-04-24T13:54:35;14.50;99.90
8778;DHT22;4425;50.872;4.712;2023-04-24T13:57:03;14.50;99.90
8778;DHT22;4425;50.872;4.712;2023-04-24T13:59:35;14.60;99.90
8778;DHT22;4425;50.872;4.712;2023-04-24T14:02:03;14.70;99.90
8778;DHT22;4425;50.872;4.712;2023-04-24T14:04:30;14.80;99.90
8778;DHT22;4425;50.872;4.712;2023-04-24T14:06:58;14.70;99.90
8778;DHT22;4425;50.872;4.712;2023-04-24T14:09:26;14.80;99.90
8778;DHT22;4425;50.872;4.712;2023-04-24T14:11:57;14.70;99.90
8778;DHT22;4425;50.872;4.712;2023-04-24T14:14:24;14.50;99.90
8778;DHT22;4425;50.872;4.712;2023-04-24T14:17:01;14.70;99.90
8778;DHT22;4425;50.872;4.712;2023-04-24T14:19:28;14.80;99.90
8778;DHT22;4425;50.872;4.712;2023-04-24T14:21:57;14.50;99.90
8778;DHT22;4425;50.872;4.712;2023-04-24T14:24:25;14.30;99.90
8778;DHT22;4425;50.872;4.712;2023-04-24T14:26:53;14.30;99.90
8778;DHT22;4425;50.872;4.712;2023-04-24T14:29:22;14.20;99.90
8778;DHT22;4425;50.872;4.712;2023-04-24T14:31:51;14.20;99.90
8778;DHT22;4425;50.872;4.712;2023-04-24T14:34:24;14.20;99.90
8778;DHT22;4425;50.872;4.712;2023-04-24T14:36:52;14.20;99.90
8778;DHT22;4425;50.872;4.712;2023-04-24T14:39:19;14.30;99.90
8778;DHT22;4425;50.872;4.712;2023-04-24T14:41:47;14.20;99.90
8778;DHT22;4425;50.872;4.712;2023-04-24T14:44:14;14.20;99.90
8778;DHT22;4425;50.872;4.712;2023-04-24T14:46:43;14.30;99.90
8778;DHT22;4425;50.872;4.712;2023-04-24T14:49:11;14.10;99.90
8778;DHT22;4425;50.872;4.712;2023-04-24T14:51:40;14.00;99.90
8778;DHT22;4425;50.872;4.712;2023-04-24T14:54:09;14.10;99.90
8778;DHT22;4425;50.872;4.712;2023-04-24T14:56:36;14.10;99.90
8778;DHT22;4425;50.872;4.712;2023-04-24T14:59:06;14.20;99.90
8778;DHT22;4425;50.872;4.712;2023-04-24T15:01:35;14.00;99.90
8778;DHT22;4425;50.872;4.712;2023-04-24T15:04:09;13.90;99.90
8778;DHT22;4425;50.872;4.712;2023-04-24T15:06:37;14.00;99.90
8778;DHT22;4425;50.872;4.712;2023-04-24T15:09:06;13.90;99.90
8778;DHT22;4425;50.872;4.712;2023-04-24T15:11:34;13.80;99.90
8778;DHT22;4425;50.872;4.712;2023-04-24T15:14:02;13.60;99.90
8778;DHT22;4425;50.872;4.712;2023-04-24T15:16:29;13.70;99.90
8778;DHT22;4425;50.872;4.712;2023-04-24T15:18:59;13.70;99.90
8778;DHT22;4425;50.872;4.712;2023-04-24T15:21:27;13.50;99.90
8778;DHT22;4425;50.872;4.712;2023-04-24T15:23:54;13.60;99.90
8778;DHT22;4425;50.872;4.712;2023-04-24T15:26:24;13.50;99.90
8778;DHT22;4425;50.872;4.712;2023-04-24T15:28:52;13.50;99.90
8778;DHT22;4425;50.872;4.712;2023-04-24T15:31:23;13.30;99.90
8778;DHT22;4425;50.872;4.712;2023-04-24T15:33:50;13.40;99.90
8778;DHT22;4425;50.872;4.712;2023-04-24T15:36:20;13.40;99.90
8778;DHT22;4425;50.872;4.712;2023-04-24T15:38:49;13.60;99.90
8778;DHT22;4425;50.872;4.712;2023-04-24T15:41:17;13.70;99.90
8778;DHT22;4425;50.872;4.712;2023-04-24T15:43:45;13.80;99.90
8778;DHT22;4425;50.872;4.712;2023-04-24T15:46:13;13.70;99.90
8778;DHT22;4425;50.872;4.712;2023-04-24T15:48:41;13.50;99.90
8778;DHT22;4425;50.872;4.712;2023-04-24T15:51:09;13.50;99.90
8778;DHT22;4425;50.872;4.712;2023-04-24T15:53:37;13.60;99.90
8778;DHT22;4425;50.872;4.712;2023-04-24T15:56:04;13.70;99.90
8778;DHT22;4425;50.872;4.712;2023-04-24T15:58:31;13.50;99.90
8778;DHT22;4425;50.872;4.712;2023-04-24T16:01:01;13.50;99.90
8778;DHT22;4425;50.872;4.712;2023-04-24T16:03:29;13.50;99.90
8778;DHT22;4425;50.872;4.712;2023-04-24T16:05:58;13.40;99.90
8778;DHT22;4425;50.872;4.712;2023-04-24T16:08:26;13.40;99.90
8778;DHT22;4425;50.872;4.712;2023-04-24T16:10:53;13.30;99.90
8778;DHT22;4425;50.872;4.712;2023-04-24T16:13:21;13.30;99.90
8778;DHT22;4425;50.872;4.712;2023-04-24T16:15:50;13.30;99.90
8778;DHT22;4425;50.872;4.712;2023-04-24T16:18:19;13.20;99.90
8778;DHT22;4425;50.872;4.712;2023-04-24T16:20:47;13.20;99.90